createdAt,value
2022-08-07T00:00:26.376Z,11.40
2022-08-07T00:02:56.209Z,11.40
2022-08-07T00:05:24.978Z,11.40
2022-08-07T00:08:00.203Z,11.30
2022-08-07T00:10:31.494Z,11.30
2022-08-07T00:13:02.437Z,11.20
2022-08-07T00:15:46.708Z,11.20
2022-08-07T00:18:24.603Z,11.20
2022-08-07T00:21:01.437Z,11.20
2022-08-07T00:23:31.270Z,11.20
2022-08-07T00:26:13.217Z,11.20
2022-08-07T00:28:55.657Z,11.10
2022-08-07T00:31:37.595Z,11.20
2022-08-07T00:34:09.753Z,11.10
2022-08-07T00:36:43.345Z,11.10
2022-08-07T00:39:16.741Z,11.10
2022-08-07T00:42:02.517Z,11.00
2022-08-07T00:44:34.986Z,11.00
2022-08-07T00:47:15.946Z,11.00
2022-08-07T00:50:18.998Z,11.00
2022-08-07T00:52:41.937Z,11.00
2022-08-07T00:55:17.466Z,10.90
2022-08-07T00:57:56.041Z,10.90
2022-08-07T01:00:23.733Z,10.90
2022-08-07T01:02:52.255Z,10.90
2022-08-07T01:05:24.576Z,10.90
2022-08-07T01:07:52.268Z,10.80
2022-08-07T01:10:20.169Z,10.80
2022-08-07T01:12:53.923Z,10.80
2022-08-07T01:16:00.712Z,10.80
2022-08-07T01:18:10.875Z,10.70
2022-08-07T01:20:57.264Z,10.70
2022-08-07T01:23:35.463Z,10.70
2022-08-07T01:26:13.393Z,10.70
2022-08-07T01:28:52.105Z,10.60
2022-08-07T01:31:21.296Z,10.60
2022-08-07T01:33:55.779Z,10.60
2022-08-07T01:36:33.928Z,10.60
2022-08-07T01:39:13.726Z,10.60
2022-08-07T01:41:55.275Z,10.60
2022-08-07T01:44:31.618Z,10.60
2022-08-07T01:47:01.119Z,10.60
2022-08-07T01:49:42.364Z,10.50
2022-08-07T01:52:11.244Z,10.50
2022-08-07T01:54:44.805Z,10.50
2022-08-07T01:57:24.889Z,10.50
2022-08-07T02:00:12.976Z,10.50
2022-08-07T02:03:16.010Z,10.50
2022-08-07T02:06:00.036Z,10.50
2022-08-07T02:08:30.749Z,10.40
2022-08-07T02:11:01.019Z,10.50
2022-08-07T02:13:57.427Z,10.40
2022-08-07T02:16:28.809Z,10.40
2022-08-07T02:20:09.660Z,10.40
2022-08-07T02:22:41.082Z,10.40
2022-08-07T02:25:17.496Z,10.40
2022-08-07T02:27:52.172Z,10.40
2022-08-07T02:30:20.880Z,10.40
2022-08-07T02:33:03.778Z,10.40
2022-08-07T02:36:29.026Z,10.40
2022-08-07T02:38:31.835Z,10.40
2022-08-07T02:41:01.188Z,10.30
2022-08-07T02:43:33.704Z,10.30
2022-08-07T02:46:04.751Z,10.30
2022-08-07T02:48:32.489Z,10.30
2022-08-07T02:51:14.254Z,10.30
2022-08-07T02:53:58.284Z,10.30
2022-08-07T02:56:28.122Z,10.20
2022-08-07T02:59:03.507Z,10.20
2022-08-07T03:01:35.740Z,10.30
2022-08-07T03:04:12.863Z,10.30
2022-08-07T03:06:44.684Z,10.30
2022-08-07T03:09:14.958Z,10.30
2022-08-07T03:12:05.628Z,10.30
2022-08-07T03:14:36.515Z,10.40
2022-08-07T03:17:08.825Z,10.30
2022-08-07T03:19:37.361Z,10.40
2022-08-07T03:22:07.115Z,10.40
2022-08-07T03:24:36.766Z,10.40
2022-08-07T03:27:09.077Z,10.40
2022-08-07T03:29:46.244Z,10.50
2022-08-07T03:32:23.502Z,10.50
2022-08-07T03:35:18.160Z,10.50
2022-08-07T03:37:46.503Z,10.60
2022-08-07T03:40:23.031Z,10.60
2022-08-07T03:42:54.777Z,10.60
2022-08-07T03:45:30.927Z,10.70
2022-08-07T03:47:59.457Z,10.70
2022-08-07T03:50:28.981Z,10.70
2022-08-07T03:52:59.980Z,10.70
2022-08-07T03:55:58.142Z,10.80
2022-08-07T03:58:34.648Z,10.80
2022-08-07T04:01:13.862Z,10.80
2022-08-07T04:03:53.795Z,10.90
2022-08-07T04:06:37.082Z,10.90
2022-08-07T04:09:15.957Z,11.00
2022-08-07T04:12:24.889Z,11.00
2022-08-07T04:14:38.840Z,11.10
2022-08-07T04:17:20.009Z,11.20
2022-08-07T04:19:59.437Z,11.20
2022-08-07T04:22:29.466Z,11.30
2022-08-07T04:25:01.612Z,11.40
2022-08-07T04:27:35.902Z,11.50
2022-08-07T04:30:11.820Z,11.60
2022-08-07T04:32:55.206Z,11.70
2022-08-07T04:35:26.133Z,11.80
2022-08-07T04:38:05.510Z,11.90
2022-08-07T04:40:43.858Z,12.00
2022-08-07T04:44:12.542Z,12.10
2022-08-07T04:46:29.611Z,12.10
2022-08-07T04:49:57.353Z,12.20
2022-08-07T04:52:30.151Z,12.30
2022-08-07T04:55:14.706Z,12.40
2022-08-07T04:58:16.966Z,12.50
2022-08-07T05:01:01.598Z,12.60
2022-08-07T05:04:08.014Z,12.70
2022-08-07T05:06:51.328Z,12.80
2022-08-07T05:09:45.660Z,12.80
2022-08-07T05:12:27.443Z,12.90
2022-08-07T05:15:23.325Z,12.90
2022-08-07T05:18:00.578Z,13.10
2022-08-07T05:20:35.250Z,13.10
2022-08-07T05:23:15.789Z,13.20
2022-08-07T05:26:10.769Z,13.30
2022-08-07T05:28:40.641Z,13.30
2022-08-07T05:31:14.546Z,13.40
2022-08-07T05:34:01.035Z,13.50
2022-08-07T05:36:35.805Z,13.60
2022-08-07T05:40:14.007Z,13.70
2022-08-07T05:42:01.587Z,13.80
2022-08-07T05:44:46.603Z,13.80
2022-08-07T05:47:38.185Z,13.90
2022-08-07T05:50:14.983Z,13.90
2022-08-07T05:52:44.605Z,14.00
2022-08-07T05:55:15.843Z,14.10
2022-08-07T05:57:48.141Z,14.20
2022-08-07T06:00:18.287Z,14.30
2022-08-07T06:02:51.519Z,14.30
2022-08-07T06:05:25.837Z,14.40
2022-08-07T06:08:29.360Z,14.50
2022-08-07T06:10:46.472Z,14.60
2022-08-07T06:13:19.166Z,14.70
2022-08-07T06:16:01.645Z,14.80
2022-08-07T06:18:33.995Z,14.90
2022-08-07T06:22:15.282Z,15.00
2022-08-07T06:24:46.054Z,15.10
2022-08-07T06:26:41.300Z,15.20
2022-08-07T06:29:09.276Z,15.30
2022-08-07T06:31:49.845Z,15.40
2022-08-07T06:34:19.699Z,15.40
2022-08-07T06:36:52.088Z,15.50
2022-08-07T06:40:17.324Z,15.60
2022-08-07T06:42:32.857Z,15.60
2022-08-07T06:45:11.303Z,15.80
2022-08-07T06:47:57.583Z,15.80
2022-08-07T06:50:33.793Z,15.90
2022-08-07T06:53:18.557Z,16.00
2022-08-07T06:56:01.457Z,16.10
2022-08-07T06:58:32.274Z,16.20
2022-08-07T07:01:00.420Z,16.30
2022-08-07T07:03:48.104Z,16.40
2022-08-07T07:06:23.853Z,16.50
2022-08-07T07:08:57.017Z,16.60
2022-08-07T07:12:08.217Z,16.60
2022-08-07T07:14:16.694Z,16.80
2022-08-07T07:16:51.011Z,16.80
2022-08-07T07:19:56.513Z,16.90
2022-08-07T07:22:39.833Z,16.90
2022-08-07T07:26:30.758Z,17.00
2022-08-07T07:28:42.348Z,17.10
2022-08-07T07:31:24.002Z,17.30
2022-08-07T07:33:57.069Z,17.40
2022-08-07T07:36:32.686Z,17.50
2022-08-07T07:39:02.869Z,17.60
2022-08-07T07:42:01.798Z,17.70
2022-08-07T07:44:27.188Z,17.70
2022-08-07T07:47:11.960Z,17.80
2022-08-07T07:50:35.717Z,17.90
2022-08-07T07:52:38.600Z,18.10
2022-08-07T07:55:09.492Z,18.20
2022-08-07T07:57:51.882Z,18.30
2022-08-07T08:00:31.261Z,18.40
2022-08-07T08:04:09.620Z,18.60
2022-08-07T08:06:11.646Z,18.60
2022-08-07T08:08:42.240Z,18.60
2022-08-07T08:11:16.237Z,18.50
2022-08-07T08:13:54.052Z,18.50
2022-08-07T08:16:30.102Z,18.60
2022-08-07T08:19:09.557Z,18.80
2022-08-07T08:22:09.844Z,19.10
2022-08-07T08:25:18.559Z,19.30
2022-08-07T08:27:56.687Z,19.40
2022-08-07T08:30:27.948Z,19.60
2022-08-07T08:33:02.221Z,19.30
2022-08-07T08:35:39.470Z,19.00
2022-08-07T08:38:20.447Z,18.80
2022-08-07T08:41:24.629Z,18.80
2022-08-07T08:44:11.857Z,19.00
2022-08-07T08:46:50.976Z,19.40
2022-08-07T08:50:02.143Z,19.70
2022-08-07T08:52:40.807Z,20.10
2022-08-07T08:55:55.047Z,20.40
2022-08-07T08:59:13.824Z,20.70
2022-08-07T09:02:01.723Z,20.70
2022-08-07T09:05:01.628Z,20.70
2022-08-07T09:07:57.622Z,20.70
2022-08-07T09:10:31.169Z,20.80
2022-08-07T09:13:15.009Z,20.80
2022-08-07T09:16:29.814Z,21.00
2022-08-07T09:19:07.145Z,20.90
2022-08-07T09:24:28.304Z,20.90
2022-08-07T09:25:17.547Z,21.00
2022-08-07T09:28:00.002Z,20.90
2022-08-07T09:30:41.817Z,20.80
2022-08-07T09:33:52.483Z,20.80
2022-08-07T09:36:37.573Z,20.80
2022-08-07T09:39:53.672Z,21.20
2022-08-07T09:42:24.879Z,21.50
2022-08-07T09:47:50.135Z,21.70
2022-08-07T09:50:01.591Z,21.80
2022-08-07T09:52:34.186Z,22.00
2022-08-07T09:55:17.132Z,21.60
2022-08-07T09:58:50.967Z,21.10
2022-08-07T10:01:53.677Z,21.00
2022-08-07T10:04:54.957Z,21.30
2022-08-07T10:07:53.632Z,21.30
2022-08-07T10:11:16.895Z,21.10
2022-08-07T10:14:11.237Z,20.90
2022-08-07T10:17:03.380Z,20.60
2022-08-07T10:20:15.844Z,20.30
2022-08-07T10:23:11.204Z,20.10
2022-08-07T10:25:53.667Z,20.00
2022-08-07T10:28:49.588Z,20.00
2022-08-07T10:31:42.167Z,20.10
2022-08-07T10:34:42.795Z,20.20
2022-08-07T10:38:00.132Z,20.20
2022-08-07T10:40:57.996Z,20.20
2022-08-07T10:43:44.806Z,20.00
2022-08-07T10:46:26.652Z,20.00
2022-08-07T10:49:49.337Z,20.40
2022-08-07T10:52:52.753Z,20.80
2022-08-07T10:55:37.833Z,21.30
2022-08-07T10:58:48.193Z,21.70
2022-08-07T11:01:51.762Z,22.20
2022-08-07T11:04:55.667Z,22.60
2022-08-07T11:07:59.565Z,23.00
2022-08-07T11:10:32.475Z,23.40
2022-08-07T11:13:06.878Z,23.60
2022-08-07T11:16:00.029Z,23.80
2022-08-07T11:18:54.737Z,24.10
2022-08-07T11:21:32.099Z,24.40
2022-08-07T11:24:30.690Z,24.40
2022-08-07T11:27:13.438Z,24.10
2022-08-07T11:29:53.813Z,23.80
2022-08-07T11:33:14.205Z,23.40
2022-08-07T11:36:20.449Z,22.70
2022-08-07T11:39:59.220Z,22.20
2022-08-07T11:43:00.921Z,21.80
2022-08-07T11:45:59.969Z,21.40
2022-08-07T11:49:51.228Z,21.30
2022-08-07T11:52:29.450Z,21.20
2022-08-07T11:56:09.594Z,21.00
2022-08-07T11:58:55.119Z,21.00
2022-08-07T12:02:00.514Z,21.10
2022-08-07T12:04:31.193Z,21.20
2022-08-07T12:07:38.724Z,21.10
2022-08-07T12:11:08.151Z,21.00
2022-08-07T12:13:53.654Z,20.80
2022-08-07T12:16:30.270Z,20.70
2022-08-07T12:20:05.413Z,20.70
2022-08-07T12:22:56.230Z,20.70
2022-08-07T12:26:02.777Z,20.70
2022-08-07T12:29:11.321Z,21.10
2022-08-07T12:31:52.851Z,21.80
2022-08-07T12:34:34.824Z,22.40
2022-08-07T12:37:08.671Z,23.10
2022-08-07T12:39:50.720Z,23.40
2022-08-07T12:42:27.969Z,23.40
2022-08-07T12:44:58.999Z,23.20
2022-08-07T12:47:57.298Z,22.90
2022-08-07T12:50:49.079Z,22.80
2022-08-07T12:54:36.325Z,22.60
2022-08-07T12:56:36.880Z,22.40
2022-08-07T12:59:08.309Z,22.30
2022-08-07T13:01:54.830Z,22.30
2022-08-07T13:05:01.450Z,22.50
2022-08-07T13:08:13.858Z,23.00
2022-08-07T13:11:25.331Z,23.60
2022-08-07T13:14:51.197Z,24.30
2022-08-07T13:17:42.258Z,25.00
2022-08-07T13:20:21.592Z,25.60
2022-08-07T13:23:59.828Z,26.00
2022-08-07T13:26:02.026Z,26.30
2022-08-07T13:29:12.230Z,26.60
2022-08-07T13:31:57.895Z,26.80
2022-08-07T13:34:54.664Z,27.00
2022-08-07T13:37:58.630Z,27.50
2022-08-07T13:40:42.397Z,27.90
2022-08-07T13:43:16.315Z,28.20
2022-08-07T13:46:11.496Z,28.40
2022-08-07T13:48:51.997Z,28.20
2022-08-07T13:52:22.757Z,27.90
2022-08-07T13:54:22.580Z,27.30
2022-08-07T13:56:59.540Z,26.60
2022-08-07T13:59:32.390Z,26.00
2022-08-07T14:02:10.210Z,25.60
2022-08-07T14:04:50.550Z,25.70
2022-08-07T14:07:27.952Z,26.00
2022-08-07T14:10:21.692Z,26.50
2022-08-07T14:12:57.813Z,26.90
2022-08-07T14:15:43.056Z,27.30
2022-08-07T14:18:34.977Z,27.70
2022-08-07T14:21:21.181Z,28.00
2022-08-07T14:24:06.747Z,28.40
2022-08-07T14:26:38.271Z,28.70
2022-08-07T14:30:10.064Z,29.00
2022-08-07T14:32:02.571Z,29.20
2022-08-07T14:34:32.918Z,29.50
2022-08-07T14:37:03.435Z,29.70
2022-08-07T14:40:16.978Z,29.90
2022-08-07T14:42:31.433Z,30.10
2022-08-07T14:45:21.584Z,30.30
2022-08-07T14:47:58.757Z,30.40
2022-08-07T14:50:28.823Z,30.30
2022-08-07T14:55:56.388Z,29.70
2022-08-07T14:58:34.129Z,29.60
2022-08-07T15:03:52.500Z,29.50
2022-08-07T15:06:25.418Z,29.30
2022-08-07T15:08:54.587Z,29.30
2022-08-07T15:11:53.316Z,29.50
2022-08-07T15:14:23.465Z,29.70
2022-08-07T15:17:16.728Z,30.00
2022-08-07T15:20:31.146Z,30.00
2022-08-07T15:22:54.013Z,30.00
2022-08-07T15:25:36.839Z,30.20
2022-08-07T15:28:31.217Z,30.40
2022-08-07T15:31:05.764Z,30.60
2022-08-07T15:33:43.344Z,30.80
2022-08-07T15:36:12.032Z,30.50
2022-08-07T15:38:59.111Z,29.60
2022-08-07T15:42:44.621Z,29.00
2022-08-07T15:44:19.098Z,28.40
2022-08-07T15:50:04.792Z,27.30
2022-08-07T15:52:31.247Z,26.80
2022-08-07T15:55:08.819Z,26.30
2022-08-07T15:57:48.815Z,26.10
2022-08-07T16:00:33.518Z,26.20
2022-08-07T16:03:45.998Z,26.70
2022-08-07T16:06:09.609Z,27.50
2022-08-07T16:08:42.834Z,28.30
2022-08-07T16:11:33.599Z,28.90
2022-08-07T16:14:19.411Z,29.50
2022-08-07T16:18:01.680Z,30.00
2022-08-07T16:20:41.670Z,30.20
2022-08-07T16:23:53.582Z,30.10
2022-08-07T16:26:30.454Z,29.90
2022-08-07T16:30:06.617Z,30.00
2022-08-07T16:32:25.539Z,30.20
2022-08-07T16:35:56.561Z,30.10
2022-08-07T16:38:50.786Z,29.70
2022-08-07T16:41:55.406Z,29.30
2022-08-07T16:45:14.708Z,29.00
2022-08-07T16:47:56.001Z,29.00
2022-08-07T16:50:41.700Z,28.90
2022-08-07T16:54:01.738Z,28.90
2022-08-07T16:56:56.592Z,28.70
2022-08-07T17:00:07.344Z,28.40
2022-08-07T17:03:04.942Z,27.90
2022-08-07T17:06:19.379Z,27.60
2022-08-07T17:09:09.705Z,27.30
2022-08-07T17:12:33.809Z,26.70
2022-08-07T17:15:17.245Z,26.10
2022-08-07T17:17:47.926Z,25.50
2022-08-07T17:20:37.876Z,24.90
2022-08-07T17:23:13.010Z,24.40
2022-08-07T17:26:23.915Z,23.90
2022-08-07T17:28:58.489Z,23.40
2022-08-07T17:31:44.420Z,22.90
2022-08-07T17:34:57.137Z,22.50
2022-08-07T17:38:08.192Z,22.10
2022-08-07T17:40:36.019Z,21.70
2022-08-07T17:43:18.447Z,21.30
2022-08-07T17:45:56.997Z,21.00
2022-08-07T17:48:33.852Z,20.70
2022-08-07T17:51:23.279Z,20.50
2022-08-07T17:54:06.407Z,20.30
2022-08-07T17:56:49.349Z,20.00
2022-08-07T17:59:41.720Z,19.80
2022-08-07T18:02:27.191Z,19.60
2022-08-07T18:05:21.212Z,19.40
2022-08-07T18:08:16.434Z,19.20
2022-08-07T18:12:08.336Z,19.00
2022-08-07T18:14:18.284Z,18.80
2022-08-07T18:18:46.613Z,18.60
2022-08-07T18:21:08.667Z,18.40
2022-08-07T18:23:58.493Z,18.20
2022-08-07T18:26:40.959Z,18.00
2022-08-07T18:30:06.695Z,17.80
2022-08-07T18:32:41.648Z,17.60
2022-08-07T18:35:55.627Z,17.50
2022-08-07T18:38:59.366Z,17.30
2022-08-07T18:41:53.111Z,17.10
2022-08-07T18:45:43.854Z,17.00
2022-08-07T18:48:01.301Z,16.80
2022-08-07T18:50:47.273Z,16.70
2022-08-07T18:53:48.611Z,16.50
2022-08-07T18:56:58.226Z,16.30
2022-08-07T18:59:59.013Z,16.20
2022-08-07T19:02:52.710Z,16.00
2022-08-07T19:06:04.180Z,15.90
2022-08-07T19:08:27.536Z,15.70
2022-08-07T19:11:34.953Z,15.60
2022-08-07T19:14:11.873Z,15.50
2022-08-07T19:17:06.694Z,15.40
2022-08-07T19:19:41.529Z,15.30
2022-08-07T19:22:31.004Z,15.20
2022-08-07T19:25:06.652Z,15.10
2022-08-07T19:28:58.034Z,15.10
2022-08-07T19:31:00.763Z,15.00
2022-08-07T19:33:34.823Z,14.90
2022-08-07T19:36:04.389Z,14.80
2022-08-07T19:38:35.435Z,14.70
2022-08-07T19:41:44.159Z,14.70
2022-08-07T19:44:21.410Z,14.70
2022-08-07T19:46:57.738Z,14.60
2022-08-07T19:49:57.096Z,14.60
2022-08-07T19:52:19.006Z,14.60
2022-08-07T19:54:55.800Z,14.50
2022-08-07T19:58:00.479Z,14.50
2022-08-07T20:00:29.775Z,14.50
2022-08-07T20:03:34.092Z,14.40
2022-08-07T20:06:06.147Z,14.40
2022-08-07T20:08:37.922Z,14.30
2022-08-07T20:11:15.255Z,14.30
2022-08-07T20:13:55.330Z,14.30
2022-08-07T20:16:35.790Z,14.20
2022-08-07T20:19:10.686Z,14.20
2022-08-07T20:21:47.444Z,14.20
2022-08-07T20:24:28.905Z,14.10
2022-08-07T20:27:02.179Z,14.00
2022-08-07T20:29:47.848Z,14.00
2022-08-07T20:32:27.070Z,14.00
2022-08-07T20:35:26.602Z,13.90
2022-08-07T20:37:59.820Z,13.90
2022-08-07T20:40:34.333Z,13.80
2022-08-07T20:43:09.567Z,13.80
2022-08-07T20:46:28.477Z,13.70
2022-08-07T20:48:34.592Z,13.70
2022-08-07T20:51:09.555Z,13.60
2022-08-07T20:54:03.245Z,13.60
2022-08-07T20:56:29.378Z,13.50
2022-08-07T20:59:01.433Z,13.40
2022-08-07T21:01:45.536Z,13.40
2022-08-07T21:04:23.364Z,13.40
2022-08-07T21:06:55.082Z,13.30
2022-08-07T21:09:52.612Z,13.30
2022-08-07T21:12:29.368Z,13.20
2022-08-07T21:15:03.391Z,13.20
2022-08-07T21:18:03.075Z,13.10
2022-08-07T21:20:30.321Z,13.10
2022-08-07T21:23:08.635Z,13.00
2022-08-07T21:25:42.455Z,13.00
2022-08-07T21:28:50.014Z,13.00
2022-08-07T21:32:42.425Z,13.00
2022-08-07T21:34:46.121Z,13.00
2022-08-07T21:37:59.231Z,13.00
2022-08-07T21:40:53.152Z,13.00
2022-08-07T21:43:36.689Z,13.00
2022-08-07T21:46:43.890Z,13.00
2022-08-07T21:49:21.086Z,12.90
2022-08-07T21:52:17.854Z,12.90
2022-08-07T21:55:19.410Z,12.90
2022-08-07T21:58:32.118Z,13.00
2022-08-07T22:02:07.155Z,13.00
2022-08-07T22:04:20.253Z,13.10
2022-08-07T22:07:01.543Z,13.20
2022-08-07T22:09:38.158Z,13.20
2022-08-07T22:12:31.764Z,13.20
2022-08-07T22:16:42.361Z,13.30
2022-08-07T22:18:03.219Z,13.30
2022-08-07T22:20:58.661Z,13.30
2022-08-07T22:23:53.460Z,13.30
2022-08-07T22:26:49.942Z,13.30
2022-08-07T22:29:51.999Z,13.40
2022-08-07T22:32:27.200Z,13.40
2022-08-07T22:34:59.060Z,13.40
2022-08-07T22:38:04.640Z,13.50
2022-08-07T22:41:07.572Z,13.50
2022-08-07T22:43:56.674Z,13.50
2022-08-07T22:47:04.155Z,13.50
2022-08-07T22:49:55.653Z,13.50
2022-08-07T22:52:37.536Z,13.50
2022-08-07T22:55:38.131Z,13.50
2022-08-07T22:58:49.894Z,13.50
2022-08-07T23:01:59.218Z,13.50
2022-08-07T23:04:56.889Z,13.50
2022-08-07T23:08:07.216Z,13.40
2022-08-07T23:11:35.098Z,13.40
2022-08-07T23:14:20.629Z,13.30
2022-08-07T23:17:08.638Z,13.20
2022-08-07T23:20:51.292Z,13.10
2022-08-07T23:24:04.491Z,13.10
2022-08-07T23:26:26.441Z,13.00
2022-08-07T23:29:43.296Z,12.90
2022-08-07T23:34:18.971Z,12.90
2022-08-07T23:35:39.785Z,12.90
2022-08-07T23:38:36.819Z,12.90
2022-08-07T23:41:47.559Z,12.90
2022-08-07T23:45:01.565Z,13.00
2022-08-07T23:47:42.432Z,13.00
2022-08-07T23:50:54.562Z,13.00
2022-08-07T23:53:51.726Z,13.00
2022-08-07T23:56:58.197Z,13.00
